createdAt,value
2022-08-21T00:01:44.841Z,20.23
2022-08-21T00:04:20.795Z,20.35
2022-08-21T00:06:51.369Z,20.41
2022-08-21T00:09:20.264Z,20.43
2022-08-21T00:11:48.774Z,20.41
2022-08-21T00:14:16.481Z,20.46
2022-08-21T00:16:44.183Z,20.39
2022-08-21T00:19:11.939Z,20.41
2022-08-21T00:21:39.693Z,20.44
2022-08-21T00:24:07.712Z,20.43
2022-08-21T00:26:35.197Z,20.52
2022-08-21T00:29:04.935Z,20.56
2022-08-21T00:31:32.685Z,20.51
2022-08-21T00:34:00.826Z,20.65
2022-08-21T00:36:29.520Z,20.49
2022-08-21T00:38:58.007Z,20.26
2022-08-21T00:41:37.054Z,19.89
2022-08-21T00:44:12.861Z,20.23
2022-08-21T00:46:41.539Z,20.09
2022-08-21T00:49:10.367Z,19.96
2022-08-21T00:51:44.214Z,20.10
2022-08-21T00:54:18.683Z,20.30
2022-08-21T00:56:47.783Z,20.27
2022-08-21T00:59:18.274Z,20.27
2022-08-21T01:01:46.003Z,19.84
2022-08-21T01:04:14.026Z,19.95
2022-08-21T01:06:41.755Z,19.89
2022-08-21T01:09:09.899Z,19.81
2022-08-21T01:11:37.381Z,19.90
2022-08-21T01:14:05.080Z,20.05
2022-08-21T01:16:33.883Z,20.03
2022-08-21T01:19:01.275Z,19.90
2022-08-21T01:21:29.335Z,19.95
2022-08-21T01:23:58.022Z,19.94
2022-08-21T01:26:33.745Z,19.77
2022-08-21T01:29:12.790Z,19.84
2022-08-21T01:31:40.247Z,19.73
2022-08-21T01:34:08.972Z,19.90
2022-08-21T01:36:36.391Z,19.89
2022-08-21T01:39:05.116Z,20.08
2022-08-21T01:41:32.810Z,19.84
2022-08-21T01:44:00.240Z,19.59
2022-08-21T01:46:27.930Z,19.69
2022-08-21T01:48:55.616Z,19.78
2022-08-21T01:51:23.057Z,19.78
2022-08-21T01:53:50.512Z,19.73
2022-08-21T01:56:19.179Z,19.66
2022-08-21T01:58:47.849Z,19.65
2022-08-21T02:01:15.877Z,19.83
2022-08-21T02:03:43.724Z,19.67
2022-08-21T02:06:14.862Z,19.61
2022-08-21T02:08:42.278Z,19.45
2022-08-21T02:11:09.961Z,19.60
2022-08-21T02:13:37.404Z,19.68
2022-08-21T02:16:04.886Z,19.74
2022-08-21T02:18:32.715Z,19.74
2022-08-21T02:21:00.153Z,19.67
2022-08-21T02:23:27.758Z,19.64
2022-08-21T02:25:59.882Z,19.72
2022-08-21T02:28:27.801Z,19.77
2022-08-21T02:30:56.869Z,19.81
2022-08-21T02:33:24.996Z,19.91
2022-08-21T02:35:54.019Z,19.89
2022-08-21T02:38:25.409Z,20.06
2022-08-21T02:40:53.566Z,19.97
2022-08-21T02:43:22.235Z,20.12
2022-08-21T02:45:51.708Z,20.09
2022-08-21T02:48:22.278Z,19.78
2022-08-21T02:50:55.229Z,19.98
2022-08-21T02:53:23.426Z,19.94
2022-08-21T02:55:51.837Z,19.79
2022-08-21T02:58:23.235Z,19.51
2022-08-21T03:00:52.196Z,19.76
2022-08-21T03:03:22.031Z,19.56
2022-08-21T03:05:49.650Z,19.63
2022-08-21T03:08:18.649Z,19.74
2022-08-21T03:10:49.641Z,19.68
2022-08-21T03:13:18.411Z,19.46
2022-08-21T03:15:45.835Z,19.51
2022-08-21T03:18:13.656Z,19.41
2022-08-21T03:20:42.974Z,19.60
2022-08-21T03:23:13.307Z,19.57
2022-08-21T03:25:45.525Z,19.61
2022-08-21T03:28:16.633Z,19.45
2022-08-21T03:30:46.555Z,19.36
2022-08-21T03:33:15.392Z,19.68
2022-08-21T03:35:44.931Z,19.61
2022-08-21T03:38:14.027Z,19.74
2022-08-21T03:40:43.215Z,19.81
2022-08-21T03:43:11.033Z,19.57
2022-08-21T03:45:39.502Z,19.50
2022-08-21T03:48:08.020Z,19.17
2022-08-21T03:50:40.676Z,19.47
2022-08-21T03:53:17.075Z,19.50
2022-08-21T03:55:47.790Z,19.31
2022-08-21T03:58:17.929Z,19.67
2022-08-21T04:00:47.317Z,19.71
2022-08-21T04:03:15.074Z,19.69
2022-08-21T04:05:42.846Z,19.60
2022-08-21T04:08:10.328Z,19.78
2022-08-21T04:10:40.750Z,19.44
2022-08-21T04:13:09.330Z,19.40
2022-08-21T04:15:36.750Z,19.12
2022-08-21T04:18:05.746Z,19.45
2022-08-21T04:20:33.402Z,19.60
2022-08-21T04:23:01.307Z,18.96
2022-08-21T04:25:29.603Z,19.62
2022-08-21T04:27:57.106Z,19.69
2022-08-21T04:30:28.455Z,19.59
2022-08-21T04:32:58.410Z,19.52
2022-08-21T04:35:27.842Z,19.65
2022-08-21T04:37:55.649Z,19.65
2022-08-21T04:40:25.664Z,19.52
2022-08-21T04:42:55.623Z,19.95
2022-08-21T04:45:29.649Z,19.97
2022-08-21T04:47:59.023Z,19.83
2022-08-21T04:50:51.046Z,19.79
2022-08-21T04:53:27.698Z,19.79
2022-08-21T04:55:56.276Z,20.09
2022-08-21T04:58:25.991Z,20.17
2022-08-21T05:00:55.550Z,19.99
2022-08-21T05:03:23.733Z,20.15
2022-08-21T05:05:51.364Z,20.27
2022-08-21T05:08:21.016Z,20.17
2022-08-21T05:10:48.853Z,20.23
2022-08-21T05:13:16.504Z,20.16
2022-08-21T05:15:43.905Z,20.02
2022-08-21T05:18:11.910Z,19.82
2022-08-21T05:20:39.507Z,20.10
2022-08-21T05:23:13.080Z,19.94
2022-08-21T05:25:41.250Z,20.09
2022-08-21T05:28:09.246Z,20.24
2022-08-21T05:30:37.979Z,20.28
2022-08-21T05:33:07.049Z,20.13
2022-08-21T05:35:35.016Z,19.92
2022-08-21T05:38:02.989Z,19.77
2022-08-21T05:40:30.789Z,20.22
2022-08-21T05:43:00.188Z,19.91
2022-08-21T05:45:43.130Z,20.01
2022-08-21T05:48:17.102Z,20.05
2022-08-21T05:50:46.374Z,20.32
2022-08-21T05:53:15.259Z,20.40
2022-08-21T05:55:46.158Z,20.51
2022-08-21T05:58:19.973Z,20.35
2022-08-21T06:00:49.186Z,20.07
2022-08-21T06:03:20.575Z,20.12
2022-08-21T06:05:48.492Z,20.51
2022-08-21T06:08:17.865Z,20.58
2022-08-21T06:10:46.570Z,20.03
2022-08-21T06:13:15.094Z,20.20
2022-08-21T06:15:42.824Z,20.41
2022-08-21T06:18:11.123Z,20.21
2022-08-21T06:20:39.241Z,20.31
2022-08-21T06:23:06.727Z,19.93
2022-08-21T06:25:34.737Z,20.51
2022-08-21T06:28:03.464Z,20.09
2022-08-21T06:30:30.933Z,20.22
2022-08-21T06:32:58.899Z,20.10
2022-08-21T06:35:26.725Z,19.95
2022-08-21T06:37:54.233Z,20.21
2022-08-21T06:40:22.102Z,20.48
2022-08-21T06:42:54.251Z,20.32
2022-08-21T06:45:22.713Z,20.18
2022-08-21T06:47:50.117Z,20.31
2022-08-21T06:50:17.574Z,20.41
2022-08-21T06:52:45.227Z,20.43
2022-08-21T06:55:12.849Z,19.90
2022-08-21T06:57:52.357Z,19.61
2022-08-21T07:00:20.571Z,20.32
2022-08-21T07:02:48.047Z,20.29
2022-08-21T07:05:18.407Z,20.26
2022-08-21T07:07:47.021Z,20.46
2022-08-21T07:10:21.782Z,20.77
2022-08-21T07:12:51.264Z,20.04
2022-08-21T07:15:28.611Z,20.53
2022-08-21T07:17:59.401Z,20.77
2022-08-21T07:20:28.629Z,20.89
2022-08-21T07:22:58.138Z,20.86
2022-08-21T07:25:26.037Z,20.99
2022-08-21T07:27:53.865Z,21.06
2022-08-21T07:30:21.521Z,21.34
2022-08-21T07:32:52.359Z,21.65
2022-08-21T07:35:21.153Z,21.27
2022-08-21T07:37:49.494Z,21.58
2022-08-21T07:40:18.250Z,21.55
2022-08-21T07:42:47.864Z,21.89
2022-08-21T07:45:15.603Z,22.04
2022-08-21T07:47:43.200Z,21.96
2022-08-21T07:50:12.975Z,21.89
2022-08-21T07:52:41.951Z,21.99
2022-08-21T07:55:11.939Z,22.30
2022-08-21T07:57:39.812Z,21.96
2022-08-21T08:00:10.871Z,22.17
2022-08-21T08:02:39.734Z,21.91
2022-08-21T08:05:10.637Z,21.80
2022-08-21T08:07:38.473Z,22.31
2022-08-21T08:10:07.954Z,22.54
2022-08-21T08:12:41.196Z,21.40
2022-08-21T08:15:15.733Z,21.68
2022-08-21T08:17:43.562Z,21.84
2022-08-21T08:20:17.146Z,21.90
2022-08-21T08:22:50.266Z,22.62
2022-08-21T08:25:18.769Z,22.65
2022-08-21T08:27:46.537Z,22.47
2022-08-21T08:30:16.586Z,22.79
2022-08-21T08:32:43.964Z,22.78
2022-08-21T08:35:12.812Z,22.91
2022-08-21T08:37:41.926Z,22.58
2022-08-21T08:40:36.756Z,22.88
2022-08-21T08:43:06.613Z,23.40
2022-08-21T08:45:37.860Z,22.18
2022-08-21T08:48:14.044Z,22.84
2022-08-21T08:50:50.906Z,21.82
2022-08-21T08:53:29.381Z,22.02
2022-08-21T08:55:57.636Z,22.91
2022-08-21T08:58:33.908Z,22.96
2022-08-21T09:01:02.779Z,23.08
2022-08-21T09:03:30.695Z,23.41
2022-08-21T09:06:16.733Z,22.63
2022-08-21T09:08:59.645Z,23.03
2022-08-21T09:11:37.878Z,23.03
2022-08-21T09:14:23.138Z,23.14
2022-08-21T09:17:03.962Z,22.81
2022-08-21T09:19:51.555Z,22.95
2022-08-21T09:22:35.803Z,23.58
2022-08-21T09:25:25.340Z,23.87
2022-08-21T09:27:52.986Z,23.52
2022-08-21T09:30:27.029Z,23.35
2022-08-21T09:32:54.769Z,23.56
2022-08-21T09:35:25.080Z,23.48
2022-08-21T09:37:56.625Z,23.57
2022-08-21T09:40:36.540Z,23.83
2022-08-21T09:43:08.257Z,24.16
2022-08-21T09:45:36.624Z,24.19
2022-08-21T09:48:11.961Z,23.99
2022-08-21T09:50:40.743Z,23.97
2022-08-21T09:53:18.521Z,24.19
2022-08-21T09:56:11.923Z,24.28
2022-08-21T09:58:42.475Z,24.12
2022-08-21T10:01:16.222Z,23.98
2022-08-21T10:03:44.228Z,24.21
2022-08-21T10:06:23.563Z,24.48
2022-08-21T10:08:51.311Z,24.65
2022-08-21T10:11:25.175Z,24.49
2022-08-21T10:14:01.788Z,23.83
2022-08-21T10:16:57.966Z,24.26
2022-08-21T10:19:33.515Z,24.87
2022-08-21T10:22:34.111Z,24.63
2022-08-21T10:25:11.476Z,24.91
2022-08-21T10:27:45.155Z,24.69
2022-08-21T10:30:16.273Z,24.72
2022-08-21T10:32:59.847Z,24.72
2022-08-21T10:35:33.306Z,24.56
2022-08-21T10:38:52.505Z,23.92
2022-08-21T10:41:41.636Z,24.21
2022-08-21T10:44:28.006Z,24.77
2022-08-21T10:47:01.182Z,24.92
2022-08-21T10:49:47.289Z,25.10
2022-08-21T10:52:52.094Z,25.24
2022-08-21T10:55:27.341Z,25.62
2022-08-21T10:58:22.609Z,25.70
2022-08-21T11:00:54.461Z,25.87
2022-08-21T11:03:39.513Z,25.98
2022-08-21T11:06:13.364Z,25.68
2022-08-21T11:08:44.673Z,25.31
2022-08-21T11:11:31.080Z,25.91
2022-08-21T11:14:22.621Z,24.90
2022-08-21T11:17:00.747Z,25.08
2022-08-21T11:19:55.095Z,25.48
2022-08-21T11:22:28.064Z,25.73
2022-08-21T11:25:04.080Z,24.81
2022-08-21T11:27:46.806Z,25.68
2022-08-21T11:30:15.096Z,25.30
2022-08-21T11:32:45.089Z,24.27
2022-08-21T11:35:27.783Z,25.58
2022-08-21T11:37:58.441Z,24.69
2022-08-21T11:40:26.323Z,24.31
2022-08-21T11:42:56.812Z,24.33
2022-08-21T11:45:46.980Z,24.92
2022-08-21T11:48:33.037Z,25.82
2022-08-21T11:51:06.362Z,25.90
2022-08-21T11:53:54.310Z,25.18
2022-08-21T11:56:30.035Z,25.10
2022-08-21T11:59:08.780Z,25.50
2022-08-21T12:01:41.599Z,25.93
2022-08-21T12:04:10.972Z,25.58
2022-08-21T12:06:41.317Z,25.27
2022-08-21T12:09:35.343Z,24.22
2022-08-21T12:12:24.784Z,24.95
2022-08-21T12:15:14.097Z,24.87
2022-08-21T12:17:51.916Z,23.69
2022-08-21T12:20:22.334Z,24.13
2022-08-21T12:23:04.959Z,24.60
2022-08-21T12:26:01.757Z,23.55
2022-08-21T12:28:31.252Z,23.94
2022-08-21T12:30:59.114Z,24.37
2022-08-21T12:33:36.629Z,24.51
2022-08-21T12:36:08.691Z,24.47
2022-08-21T12:38:52.653Z,23.84
2022-08-21T12:41:33.571Z,24.66
2022-08-21T12:44:06.650Z,24.99
2022-08-21T12:46:47.488Z,24.76
2022-08-21T12:49:19.818Z,24.07
2022-08-21T12:51:58.681Z,24.07
2022-08-21T12:54:39.371Z,24.06
2022-08-21T12:57:08.001Z,24.06
2022-08-21T12:59:40.146Z,24.07
2022-08-21T13:02:17.911Z,23.82
2022-08-21T13:04:45.936Z,22.90
2022-08-21T13:07:23.836Z,24.00
2022-08-21T13:09:56.722Z,24.19
2022-08-21T13:12:28.347Z,23.52
2022-08-21T13:15:08.763Z,23.94
2022-08-21T13:17:41.042Z,23.44
2022-08-21T13:20:23.017Z,23.19
2022-08-21T13:22:50.945Z,22.68
2022-08-21T13:25:20.528Z,22.81
2022-08-21T13:28:15.714Z,22.72
2022-08-21T13:30:48.433Z,22.45
2022-08-21T13:33:17.628Z,23.21
2022-08-21T13:35:52.457Z,23.61
2022-08-21T13:38:20.874Z,23.21
2022-08-21T13:41:02.346Z,23.24
2022-08-21T13:43:34.159Z,23.42
2022-08-21T13:46:03.699Z,23.23
2022-08-21T13:48:34.425Z,22.81
2022-08-21T13:51:02.761Z,23.12
2022-08-21T13:53:36.645Z,23.06
2022-08-21T13:56:05.506Z,22.55
2022-08-21T13:58:44.582Z,22.77
2022-08-21T14:01:28.863Z,23.04
2022-08-21T14:04:09.354Z,23.00
2022-08-21T14:06:38.741Z,22.66
2022-08-21T14:09:11.942Z,22.37
2022-08-21T14:11:40.563Z,22.50
2022-08-21T14:14:21.275Z,22.43
2022-08-21T14:17:25.065Z,22.24
2022-08-21T14:19:57.012Z,22.22
2022-08-21T14:22:30.806Z,22.44
2022-08-21T14:25:24.189Z,22.67
2022-08-21T14:27:55.239Z,22.77
2022-08-21T14:30:35.882Z,22.85
2022-08-21T14:33:05.194Z,22.32
2022-08-21T14:35:33.661Z,22.83
2022-08-21T14:38:01.181Z,21.99
2022-08-21T14:40:30.945Z,23.08
2022-08-21T14:42:58.979Z,23.27
2022-08-21T14:45:30.922Z,22.89
2022-08-21T14:47:59.693Z,23.28
2022-08-21T14:50:28.266Z,23.29
2022-08-21T14:52:56.223Z,23.36
2022-08-21T14:55:24.061Z,23.91
2022-08-21T14:57:53.509Z,23.52
2022-08-21T15:00:27.075Z,23.32
2022-08-21T15:03:03.644Z,22.69
2022-08-21T15:05:33.848Z,22.90
2022-08-21T15:08:02.269Z,22.41
2022-08-21T15:10:31.220Z,22.74
2022-08-21T15:12:58.756Z,23.08
2022-08-21T15:15:26.250Z,23.01
2022-08-21T15:17:53.999Z,21.30
2022-08-21T15:20:21.413Z,22.02
2022-08-21T15:22:48.936Z,22.22
2022-08-21T15:25:18.011Z,22.75
2022-08-21T15:27:45.441Z,22.98
2022-08-21T15:30:13.211Z,23.11
2022-08-21T15:32:42.554Z,22.49
2022-08-21T15:35:10.305Z,21.65
2022-08-21T15:37:37.820Z,22.29
2022-08-21T15:40:08.178Z,23.06
2022-08-21T15:42:35.961Z,23.36
2022-08-21T15:45:04.225Z,23.19
2022-08-21T15:47:34.550Z,23.47
2022-08-21T15:50:02.777Z,23.74
2022-08-21T15:52:30.277Z,22.88
2022-08-21T15:54:58.037Z,23.39
2022-08-21T15:57:26.177Z,23.45
2022-08-21T16:00:12.789Z,22.98
2022-08-21T16:02:44.907Z,22.34
2022-08-21T16:05:13.609Z,22.57
2022-08-21T16:07:41.315Z,21.69
2022-08-21T16:10:09.206Z,22.47
2022-08-21T16:12:41.599Z,22.61
2022-08-21T16:15:11.477Z,22.56
2022-08-21T16:17:51.156Z,22.38
2022-08-21T16:20:25.404Z,22.85
2022-08-21T16:22:54.157Z,22.93
2022-08-21T16:25:22.002Z,22.88
2022-08-21T16:27:59.253Z,22.83
2022-08-21T16:30:28.727Z,22.71
2022-08-21T16:32:56.849Z,22.78
2022-08-21T16:35:25.267Z,22.66
2022-08-21T16:37:53.562Z,22.64
2022-08-21T16:40:27.169Z,22.57
2022-08-21T16:42:55.729Z,22.48
2022-08-21T16:45:23.377Z,22.38
2022-08-21T16:47:51.455Z,22.42
2022-08-21T16:50:23.530Z,22.53
2022-08-21T16:52:51.707Z,22.53
2022-08-21T16:55:19.513Z,22.37
2022-08-21T16:57:47.317Z,22.25
2022-08-21T17:00:15.731Z,22.23
2022-08-21T17:02:51.242Z,22.34
2022-08-21T17:05:19.127Z,22.27
2022-08-21T17:07:46.890Z,22.38
2022-08-21T17:10:16.835Z,22.17
2022-08-21T17:12:46.589Z,22.12
2022-08-21T17:15:21.469Z,22.18
2022-08-21T17:17:49.256Z,22.21
2022-08-21T17:20:18.552Z,22.54
2022-08-21T17:22:46.156Z,22.30
2022-08-21T17:25:13.637Z,22.53
2022-08-21T17:27:44.209Z,22.64
2022-08-21T17:30:12.961Z,22.73
2022-08-21T17:32:42.385Z,22.62
2022-08-21T17:35:10.612Z,22.48
2022-08-21T17:37:38.395Z,22.67
2022-08-21T17:40:08.592Z,22.56
2022-08-21T17:42:36.647Z,22.49
2022-08-21T17:45:04.689Z,22.56
2022-08-21T17:47:32.526Z,22.45
2022-08-21T17:50:00.020Z,21.46
2022-08-21T17:52:27.542Z,22.12
2022-08-21T17:54:55.399Z,22.23
2022-08-21T17:57:23.962Z,22.12
2022-08-21T17:59:55.164Z,21.14
2022-08-21T18:02:25.608Z,20.43
2022-08-21T18:04:55.381Z,20.73
2022-08-21T18:07:32.031Z,20.85
2022-08-21T18:10:02.119Z,20.52
2022-08-21T18:12:30.734Z,20.92
2022-08-21T18:14:59.616Z,20.83
2022-08-21T18:17:29.693Z,21.60
2022-08-21T18:19:57.213Z,21.78
2022-08-21T18:22:24.651Z,21.80
2022-08-21T18:24:52.370Z,21.91
2022-08-21T18:27:24.595Z,21.23
2022-08-21T18:29:56.499Z,20.89
2022-08-21T18:32:31.122Z,20.94
2022-08-21T18:35:02.060Z,20.43
2022-08-21T18:37:29.865Z,21.02
2022-08-21T18:39:58.061Z,20.57
2022-08-21T18:42:28.605Z,21.05
2022-08-21T18:45:01.181Z,20.42
2022-08-21T18:47:33.921Z,20.05
2022-08-21T18:50:02.146Z,19.72
2022-08-21T18:52:31.829Z,20.38
2022-08-21T18:55:05.971Z,19.53
2022-08-21T18:57:35.697Z,19.71
2022-08-21T19:00:13.070Z,20.02
2022-08-21T19:02:44.072Z,20.26
2022-08-21T19:05:15.267Z,20.57
2022-08-21T19:07:46.047Z,19.80
2022-08-21T19:10:30.882Z,19.47
2022-08-21T19:13:01.371Z,20.56
2022-08-21T19:15:30.068Z,19.95
2022-08-21T19:17:58.725Z,19.50
2022-08-21T19:20:35.112Z,19.13
2022-08-21T19:23:08.678Z,19.71
2022-08-21T19:25:41.927Z,19.73
2022-08-21T19:28:14.079Z,20.51
2022-08-21T19:30:52.161Z,20.55
2022-08-21T19:33:26.501Z,20.65
2022-08-21T19:35:55.812Z,20.77
2022-08-21T19:38:25.718Z,20.40
2022-08-21T19:40:55.167Z,20.18
2022-08-21T19:43:24.047Z,20.76
2022-08-21T19:45:56.752Z,20.61
2022-08-21T19:48:26.059Z,20.28
2022-08-21T19:50:55.644Z,20.26
2022-08-21T19:53:23.686Z,20.78
2022-08-21T19:55:51.790Z,20.92
2022-08-21T19:58:42.793Z,20.26
2022-08-21T20:01:16.339Z,20.58
2022-08-21T20:03:53.861Z,20.77
2022-08-21T20:06:24.520Z,20.60
2022-08-21T20:08:55.108Z,20.23
2022-08-21T20:11:33.240Z,20.32
2022-08-21T20:14:01.888Z,20.15
2022-08-21T20:16:29.988Z,20.20
2022-08-21T20:18:58.445Z,19.86
2022-08-21T20:21:26.624Z,20.00
2022-08-21T20:23:54.412Z,19.30
2022-08-21T20:26:23.086Z,19.64
2022-08-21T20:28:51.828Z,19.43
2022-08-21T20:31:21.741Z,18.81
2022-08-21T20:33:50.029Z,18.96
2022-08-21T20:36:19.096Z,18.99
2022-08-21T20:38:48.267Z,19.16
2022-08-21T20:41:17.944Z,18.91
2022-08-21T20:43:51.017Z,18.74
2022-08-21T20:46:23.118Z,19.47
2022-08-21T20:48:51.419Z,19.17
2022-08-21T20:51:30.722Z,19.89
2022-08-21T20:54:26.037Z,19.81
2022-08-21T20:57:01.775Z,19.45
2022-08-21T20:59:36.288Z,19.38
2022-08-21T21:02:17.343Z,20.41
2022-08-21T21:08:03.800Z,20.09
2022-08-21T21:10:49.755Z,20.57
2022-08-21T21:13:27.823Z,19.25
2022-08-21T21:16:06.619Z,19.51
2022-08-21T21:18:44.435Z,19.16
2022-08-21T21:21:18.638Z,20.08
2022-08-21T21:23:53.262Z,20.32
2022-08-21T21:26:29.337Z,19.40
2022-08-21T21:29:14.056Z,18.55
2022-08-21T21:31:42.081Z,18.61
2022-08-21T21:34:17.344Z,18.65
2022-08-21T21:36:56.055Z,19.48
2022-08-21T21:39:36.045Z,18.69
2022-08-21T21:42:10.513Z,18.42
2022-08-21T21:45:03.356Z,19.15
2022-08-21T21:47:34.021Z,19.63
2022-08-21T21:50:33.263Z,19.21
2022-08-21T21:53:16.474Z,19.10
2022-08-21T21:56:12.766Z,18.19
2022-08-21T21:59:15.684Z,19.31
2022-08-21T22:02:09.111Z,19.22
2022-08-21T22:05:19.445Z,18.90
2022-08-21T22:07:59.418Z,18.43
2022-08-21T22:10:43.022Z,19.14
2022-08-21T22:13:39.126Z,18.95
2022-08-21T22:16:07.957Z,19.22
2022-08-21T22:18:57.585Z,18.50
2022-08-21T22:21:34.290Z,18.08
2022-08-21T22:24:29.393Z,18.08
2022-08-21T22:27:11.343Z,18.19
2022-08-21T22:29:52.908Z,18.21
2022-08-21T22:32:28.022Z,18.52
2022-08-21T22:35:15.519Z,18.22
2022-08-21T22:38:01.421Z,18.16
2022-08-21T22:40:32.603Z,18.71
2022-08-21T22:43:03.096Z,18.84
2022-08-21T22:46:06.881Z,18.61
2022-08-21T22:48:38.625Z,19.23
2022-08-21T22:51:29.998Z,18.56
2022-08-21T22:54:01.130Z,19.71
2022-08-21T22:56:33.217Z,18.84
2022-08-21T22:59:04.911Z,19.31
2022-08-21T23:01:40.190Z,18.75
2022-08-21T23:04:14.168Z,19.21
2022-08-21T23:06:56.297Z,18.63
2022-08-21T23:09:36.332Z,19.12
2022-08-21T23:12:34.032Z,19.22
2022-08-21T23:15:12.363Z,18.34
2022-08-21T23:18:05.441Z,18.29
2022-08-21T23:20:55.570Z,18.43
2022-08-21T23:23:31.122Z,18.51
2022-08-21T23:26:17.404Z,18.38
2022-08-21T23:28:55.216Z,18.34
2022-08-21T23:31:44.420Z,18.29
2022-08-21T23:34:20.759Z,18.53
2022-08-21T23:37:48.736Z,18.64
2022-08-21T23:40:18.366Z,18.41
2022-08-21T23:43:05.005Z,19.21
2022-08-21T23:45:55.964Z,19.22
2022-08-21T23:48:34.073Z,18.92
2022-08-21T23:51:09.087Z,18.25
2022-08-21T23:54:14.676Z,17.98
2022-08-21T23:56:54.251Z,17.70
2022-08-21T23:59:43.792Z,18.53
